Overview Statistics Trail Chart Weather Telemetry Raw packets
 

This is the latest recevied weather packets stored in our database for station/object WMKD. If no packets are shown the sender has not sent any weather packets the latest 10 day(s).

<< 1 2 3 4 >>
Time Temp. Humidity Pressure Rain* Wind** Luminosity Snow
1778126999 32.78° C 62% 1008 hPa - - - -
1778123395 31.67° C 66% 1008 hPa - - - -
1778119795 30° C 74% 1008 hPa - - - -
1778116195 26.67° C 88% 1008 hPa - - - -
1778112598 25.56° C 94% 1008 hPa - - - -
1778108995 25° C 94% 1007 hPa - - - -
1778105395 25° C 94% 1006 hPa - - - -
1778101795 25° C 94% 1006 hPa - - - -
1778098198 25° C 94% 1007 hPa - - - -
1778094595 25° C 94% 1007 hPa - - - -
1778091591 25.56° C 94% 1008 hPa - - - -
1778090994 25.56° C 94% 1008 hPa - - - -
1778087394 25.56° C 94% 1008 hPa - - - -
1778083797 25.56° C 94% 1009 hPa - - - -
1778080200 26.67° C 88% 1009 hPa - - - -
1778076594 26.67° C 88% 1008 hPa - - - -
1778072994 27.78° C 78% 1007 hPa - - - -
1778069397 28.89° C 74% 1006 hPa - - - -
1778065794 30° C 66% 1006 hPa - - - -
1778062194 31.67° C 59% 1005 hPa - - - -
1778058594 32.78° C 55% 1005 hPa - - - -
1778054993 33.89° C 52% 1004 hPa - - - -
1778051398 33.89° C 56% 1005 hPa - - - -
1778047793 33.89° C 56% 1007 hPa - - - -
1778044193 32.78° C 59% 1008 hPa - - - -

* Rain since midnight (hover to see other rain measurements)
** Current wind speed in m/s (hover to see current wind gust speed)